sensor_id;sensor_type;location;lat;lon;timestamp;P1;durP1;ratioP1;P2;durP2;ratioP2
55813;SDS011;65494;42.818;0.404;2023-06-01T00:01:43;8.18;;;3.63;;
55813;SDS011;65494;42.818;0.404;2023-06-01T00:04:09;5.90;;;2.90;;
55813;SDS011;65494;42.818;0.404;2023-06-01T00:06:36;9.75;;;3.33;;
55813;SDS011;65494;42.818;0.404;2023-06-01T00:09:02;9.90;;;3.83;;
55813;SDS011;65494;42.818;0.404;2023-06-01T00:11:28;8.13;;;3.70;;
55813;SDS011;65494;42.818;0.404;2023-06-01T00:13:54;9.18;;;3.97;;
55813;SDS011;65494;42.818;0.404;2023-06-01T00:16:20;11.15;;;3.83;;
55813;SDS011;65494;42.818;0.404;2023-06-01T00:18:47;9.98;;;4.07;;
55813;SDS011;65494;42.818;0.404;2023-06-01T00:21:14;10.50;;;3.78;;
55813;SDS011;65494;42.818;0.404;2023-06-01T00:23:40;9.18;;;4.07;;
55813;SDS011;65494;42.818;0.404;2023-06-01T00:26:06;9.30;;;4.18;;
55813;SDS011;65494;42.818;0.404;2023-06-01T00:28:33;8.48;;;3.65;;
55813;SDS011;65494;42.818;0.404;2023-06-01T00:30:59;8.80;;;3.90;;
55813;SDS011;65494;42.818;0.404;2023-06-01T00:33:25;8.65;;;3.45;;
55813;SDS011;65494;42.818;0.404;2023-06-01T00:35:51;6.75;;;3.33;;
55813;SDS011;65494;42.818;0.404;2023-06-01T00:38:17;9.73;;;3.70;;
55813;SDS011;65494;42.818;0.404;2023-06-01T00:40:43;5.20;;;2.85;;
55813;SDS011;65494;42.818;0.404;2023-06-01T00:43:10;7.68;;;3.00;;
55813;SDS011;65494;42.818;0.404;2023-06-01T00:45:36;8.10;;;3.28;;
55813;SDS011;65494;42.818;0.404;2023-06-01T00:48:02;8.05;;;3.30;;
55813;SDS011;65494;42.818;0.404;2023-06-01T00:50:29;6.05;;;2.88;;
55813;SDS011;65494;42.818;0.404;2023-06-01T00:52:55;6.57;;;2.85;;
55813;SDS011;65494;42.818;0.404;2023-06-01T00:55:21;6.82;;;2.90;;
55813;SDS011;65494;42.818;0.404;2023-06-01T00:57:48;5.05;;;2.50;;
55813;SDS011;65494;42.818;0.404;2023-06-01T01:00:15;7.43;;;3.10;;
55813;SDS011;65494;42.818;0.404;2023-06-01T01:02:41;8.93;;;3.10;;
55813;SDS011;65494;42.818;0.404;2023-06-01T01:05:13;8.25;;;3.20;;
55813;SDS011;65494;42.818;0.404;2023-06-01T01:15:43;6.05;;;2.70;;
55813;SDS011;65494;42.818;0.404;2023-06-01T01:18:11;7.13;;;3.00;;
55813;SDS011;65494;42.818;0.404;2023-06-01T01:20:42;6.55;;;2.72;;
55813;SDS011;65494;42.818;0.404;2023-06-01T01:33:12;8.18;;;2.65;;
55813;SDS011;65494;42.818;0.404;2023-06-01T01:35:39;9.27;;;3.00;;
55813;SDS011;65494;42.818;0.404;2023-06-01T01:38:06;6.75;;;2.63;;
55813;SDS011;65494;42.818;0.404;2023-06-01T01:40:32;7.85;;;3.10;;
55813;SDS011;65494;42.818;0.404;2023-06-01T01:42:58;7.60;;;2.90;;
55813;SDS011;65494;42.818;0.404;2023-06-01T01:45:24;7.55;;;3.13;;
55813;SDS011;65494;42.818;0.404;2023-06-01T01:47:54;7.03;;;2.80;;
55813;SDS011;65494;42.818;0.404;2023-06-01T01:50:26;5.03;;;2.45;;
55813;SDS011;65494;42.818;0.404;2023-06-01T01:52:53;6.68;;;2.92;;
55813;SDS011;65494;42.818;0.404;2023-06-01T01:55:20;7.60;;;3.05;;
55813;SDS011;65494;42.818;0.404;2023-06-01T01:57:50;10.75;;;2.85;;
55813;SDS011;65494;42.818;0.404;2023-06-01T02:00:17;8.63;;;2.85;;
55813;SDS011;65494;42.818;0.404;2023-06-01T02:02:46;7.95;;;2.70;;
55813;SDS011;65494;42.818;0.404;2023-06-01T02:05:12;7.13;;;3.70;;
55813;SDS011;65494;42.818;0.404;2023-06-01T02:07:38;7.07;;;3.05;;
55813;SDS011;65494;42.818;0.404;2023-06-01T02:10:05;7.50;;;3.22;;
55813;SDS011;65494;42.818;0.404;2023-06-01T02:12:31;5.38;;;2.72;;
55813;SDS011;65494;42.818;0.404;2023-06-01T02:14:57;6.82;;;3.00;;
55813;SDS011;65494;42.818;0.404;2023-06-01T02:17:23;6.55;;;2.90;;
55813;SDS011;65494;42.818;0.404;2023-06-01T02:19:51;8.02;;;2.85;;
55813;SDS011;65494;42.818;0.404;2023-06-01T02:22:17;8.18;;;3.05;;
55813;SDS011;65494;42.818;0.404;2023-06-01T02:24:44;7.43;;;3.03;;
55813;SDS011;65494;42.818;0.404;2023-06-01T02:27:10;7.05;;;3.05;;
55813;SDS011;65494;42.818;0.404;2023-06-01T02:29:36;7.43;;;3.13;;
55813;SDS011;65494;42.818;0.404;2023-06-01T02:32:02;6.03;;;2.60;;
55813;SDS011;65494;42.818;0.404;2023-06-01T02:34:28;6.20;;;2.72;;
55813;SDS011;65494;42.818;0.404;2023-06-01T02:36:55;6.68;;;3.30;;
55813;SDS011;65494;42.818;0.404;2023-06-01T02:39:21;7.30;;;3.20;;
55813;SDS011;65494;42.818;0.404;2023-06-01T02:41:47;7.60;;;3.60;;
55813;SDS011;65494;42.818;0.404;2023-06-01T02:44:13;8.15;;;2.65;;
55813;SDS011;65494;42.818;0.404;2023-06-01T02:46:40;6.25;;;3.20;;
55813;SDS011;65494;42.818;0.404;2023-06-01T02:49:06;6.25;;;2.85;;
55813;SDS011;65494;42.818;0.404;2023-06-01T02:51:32;5.93;;;2.90;;
55813;SDS011;65494;42.818;0.404;2023-06-01T02:53:58;7.10;;;3.00;;
55813;SDS011;65494;42.818;0.404;2023-06-01T02:56:25;7.53;;;3.00;;
55813;SDS011;65494;42.818;0.404;2023-06-01T02:58:51;5.47;;;2.95;;
55813;SDS011;65494;42.818;0.404;2023-06-01T03:01:17;6.70;;;2.88;;
55813;SDS011;65494;42.818;0.404;2023-06-01T03:03:46;8.07;;;3.13;;
55813;SDS011;65494;42.818;0.404;2023-06-01T03:06:12;10.02;;;3.40;;
55813;SDS011;65494;42.818;0.404;2023-06-01T03:08:38;7.32;;;3.30;;
55813;SDS011;65494;42.818;0.404;2023-06-01T03:11:04;8.20;;;2.92;;
55813;SDS011;65494;42.818;0.404;2023-06-01T03:13:31;7.72;;;2.42;;
55813;SDS011;65494;42.818;0.404;2023-06-01T03:15:57;7.05;;;2.50;;
55813;SDS011;65494;42.818;0.404;2023-06-01T03:18:23;4.95;;;2.80;;
55813;SDS011;65494;42.818;0.404;2023-06-01T03:20:49;6.75;;;2.85;;
55813;SDS011;65494;42.818;0.404;2023-06-01T03:23:15;7.10;;;2.80;;
55813;SDS011;65494;42.818;0.404;2023-06-01T03:25:41;6.65;;;2.72;;
55813;SDS011;65494;42.818;0.404;2023-06-01T03:28:07;7.28;;;2.95;;
55813;SDS011;65494;42.818;0.404;2023-06-01T03:30:33;5.68;;;2.40;;
55813;SDS011;65494;42.818;0.404;2023-06-01T03:33:01;6.57;;;2.80;;
55813;SDS011;65494;42.818;0.404;2023-06-01T03:35:27;5.40;;;2.50;;
55813;SDS011;65494;42.818;0.404;2023-06-01T03:37:53;5.13;;;2.53;;
55813;SDS011;65494;42.818;0.404;2023-06-01T03:40:19;5.32;;;2.63;;
55813;SDS011;65494;42.818;0.404;2023-06-01T03:42:46;5.18;;;2.60;;
55813;SDS011;65494;42.818;0.404;2023-06-01T03:45:13;5.13;;;2.28;;
55813;SDS011;65494;42.818;0.404;2023-06-01T03:47:40;5.65;;;2.55;;
55813;SDS011;65494;42.818;0.404;2023-06-01T03:50:07;7.25;;;2.55;;
55813;SDS011;65494;42.818;0.404;2023-06-01T03:52:34;5.88;;;2.30;;
55813;SDS011;65494;42.818;0.404;2023-06-01T03:55:00;10.20;;;2.42;;
55813;SDS011;65494;42.818;0.404;2023-06-01T03:57:27;5.93;;;2.53;;
55813;SDS011;65494;42.818;0.404;2023-06-01T03:59:53;7.32;;;2.65;;
55813;SDS011;65494;42.818;0.404;2023-06-01T04:02:19;4.85;;;2.83;;
55813;SDS011;65494;42.818;0.404;2023-06-01T04:04:47;5.47;;;2.50;;
55813;SDS011;65494;42.818;0.404;2023-06-01T04:07:13;5.72;;;2.63;;
55813;SDS011;65494;42.818;0.404;2023-06-01T04:09:43;7.10;;;2.67;;
55813;SDS011;65494;42.818;0.404;2023-06-01T04:12:11;4.93;;;2.28;;
55813;SDS011;65494;42.818;0.404;2023-06-01T04:14:37;6.60;;;3.25;;
55813;SDS011;65494;42.818;0.404;2023-06-01T04:17:03;9.32;;;2.70;;
55813;SDS011;65494;42.818;0.404;2023-06-01T04:19:29;4.78;;;2.22;;
55813;SDS011;65494;42.818;0.404;2023-06-01T04:21:56;3.08;;;1.88;;
55813;SDS011;65494;42.818;0.404;2023-06-01T04:24:22;3.67;;;1.88;;
55813;SDS011;65494;42.818;0.404;2023-06-01T04:26:48;3.53;;;1.90;;
55813;SDS011;65494;42.818;0.404;2023-06-01T04:29:15;3.00;;;1.80;;
55813;SDS011;65494;42.818;0.404;2023-06-01T04:31:44;3.50;;;1.83;;
55813;SDS011;65494;42.818;0.404;2023-06-01T04:34:10;4.05;;;2.20;;
55813;SDS011;65494;42.818;0.404;2023-06-01T04:36:37;5.05;;;2.10;;
55813;SDS011;65494;42.818;0.404;2023-06-01T04:39:04;3.33;;;1.80;;
55813;SDS011;65494;42.818;0.404;2023-06-01T04:41:31;3.10;;;1.92;;
55813;SDS011;65494;42.818;0.404;2023-06-01T04:43:58;4.00;;;2.00;;
55813;SDS011;65494;42.818;0.404;2023-06-01T04:46:24;6.82;;;2.40;;
55813;SDS011;65494;42.818;0.404;2023-06-01T04:48:54;4.65;;;2.40;;
55813;SDS011;65494;42.818;0.404;2023-06-01T04:51:22;5.32;;;2.40;;
55813;SDS011;65494;42.818;0.404;2023-06-01T04:53:49;4.50;;;2.35;;
55813;SDS011;65494;42.818;0.404;2023-06-01T04:56:22;3.97;;;2.17;;
55813;SDS011;65494;42.818;0.404;2023-06-01T04:58:52;4.35;;;2.20;;
55813;SDS011;65494;42.818;0.404;2023-06-01T05:01:19;4.68;;;2.25;;
55813;SDS011;65494;42.818;0.404;2023-06-01T05:03:50;4.50;;;2.20;;
55813;SDS011;65494;42.818;0.404;2023-06-01T05:06:17;4.10;;;2.17;;
55813;SDS011;65494;42.818;0.404;2023-06-01T05:08:43;6.32;;;1.92;;
55813;SDS011;65494;42.818;0.404;2023-06-01T05:11:09;5.20;;;2.25;;
55813;SDS011;65494;42.818;0.404;2023-06-01T05:13:36;5.97;;;2.53;;
55813;SDS011;65494;42.818;0.404;2023-06-01T05:16:02;4.32;;;1.83;;
55813;SDS011;65494;42.818;0.404;2023-06-01T05:18:28;5.03;;;2.28;;
55813;SDS011;65494;42.818;0.404;2023-06-01T05:20:55;4.45;;;2.20;;
55813;SDS011;65494;42.818;0.404;2023-06-01T05:23:21;4.32;;;2.15;;
55813;SDS011;65494;42.818;0.404;2023-06-01T05:25:47;4.82;;;2.13;;
55813;SDS011;65494;42.818;0.404;2023-06-01T05:28:13;5.38;;;2.40;;
55813;SDS011;65494;42.818;0.404;2023-06-01T05:30:39;4.38;;;2.08;;
55813;SDS011;65494;42.818;0.404;2023-06-01T05:33:05;3.78;;;1.90;;
55813;SDS011;65494;42.818;0.404;2023-06-01T05:35:32;6.88;;;2.58;;
55813;SDS011;65494;42.818;0.404;2023-06-01T05:37:58;5.95;;;2.40;;
55813;SDS011;65494;42.818;0.404;2023-06-01T05:40:24;5.15;;;2.58;;
55813;SDS011;65494;42.818;0.404;2023-06-01T05:42:51;5.57;;;2.45;;
55813;SDS011;65494;42.818;0.404;2023-06-01T05:45:17;4.72;;;2.47;;
55813;SDS011;65494;42.818;0.404;2023-06-01T05:47:43;5.88;;;2.45;;
55813;SDS011;65494;42.818;0.404;2023-06-01T05:50:09;4.03;;;2.10;;
55813;SDS011;65494;42.818;0.404;2023-06-01T05:52:35;4.20;;;2.08;;
55813;SDS011;65494;42.818;0.404;2023-06-01T05:55:02;5.78;;;2.60;;
55813;SDS011;65494;42.818;0.404;2023-06-01T05:57:28;5.25;;;2.15;;
55813;SDS011;65494;42.818;0.404;2023-06-01T05:59:54;3.78;;;2.00;;
55813;SDS011;65494;42.818;0.404;2023-06-01T06:02:20;6.13;;;1.92;;
55813;SDS011;65494;42.818;0.404;2023-06-01T06:04:46;5.97;;;2.92;;
55813;SDS011;65494;42.818;0.404;2023-06-01T06:07:12;3.80;;;1.65;;
55813;SDS011;65494;42.818;0.404;2023-06-01T06:09:39;3.97;;;1.77;;
55813;SDS011;65494;42.818;0.404;2023-06-01T06:12:05;2.80;;;1.67;;
55813;SDS011;65494;42.818;0.404;2023-06-01T06:14:32;4.05;;;1.42;;
55813;SDS011;65494;42.818;0.404;2023-06-01T06:16:58;2.65;;;1.48;;
55813;SDS011;65494;42.818;0.404;2023-06-01T06:19:25;4.18;;;1.80;;
55813;SDS011;65494;42.818;0.404;2023-06-01T06:21:51;2.50;;;1.67;;
55813;SDS011;65494;42.818;0.404;2023-06-01T06:24:18;2.88;;;1.63;;
55813;SDS011;65494;42.818;0.404;2023-06-01T06:26:44;3.38;;;1.58;;
55813;SDS011;65494;42.818;0.404;2023-06-01T06:29:12;3.75;;;1.65;;
55813;SDS011;65494;42.818;0.404;2023-06-01T06:31:38;3.25;;;1.70;;
55813;SDS011;65494;42.818;0.404;2023-06-01T06:34:04;3.67;;;1.67;;
55813;SDS011;65494;42.818;0.404;2023-06-01T06:36:30;3.65;;;1.92;;
55813;SDS011;65494;42.818;0.404;2023-06-01T06:38:56;3.72;;;1.83;;
55813;SDS011;65494;42.818;0.404;2023-06-01T06:41:23;5.28;;;1.83;;
55813;SDS011;65494;42.818;0.404;2023-06-01T06:43:49;6.70;;;1.80;;
55813;SDS011;65494;42.818;0.404;2023-06-01T06:46:15;3.05;;;1.67;;
55813;SDS011;65494;42.818;0.404;2023-06-01T06:48:41;4.65;;;1.80;;
55813;SDS011;65494;42.818;0.404;2023-06-01T06:51:07;3.83;;;1.75;;
55813;SDS011;65494;42.818;0.404;2023-06-01T06:53:33;6.13;;;1.90;;
55813;SDS011;65494;42.818;0.404;2023-06-01T06:55:59;4.38;;;1.75;;
55813;SDS011;65494;42.818;0.404;2023-06-01T06:58:25;3.60;;;1.95;;
55813;SDS011;65494;42.818;0.404;2023-06-01T07:00:52;3.33;;;1.73;;
55813;SDS011;65494;42.818;0.404;2023-06-01T07:03:18;4.95;;;2.20;;
55813;SDS011;65494;42.818;0.404;2023-06-01T07:05:44;4.72;;;2.28;;
55813;SDS011;65494;42.818;0.404;2023-06-01T07:08:11;3.15;;;1.88;;
55813;SDS011;65494;42.818;0.404;2023-06-01T07:10:37;4.65;;;1.85;;
55813;SDS011;65494;42.818;0.404;2023-06-01T07:13:03;7.18;;;2.47;;
55813;SDS011;65494;42.818;0.404;2023-06-01T07:15:29;3.65;;;1.90;;
55813;SDS011;65494;42.818;0.404;2023-06-01T07:17:55;4.63;;;2.00;;
55813;SDS011;65494;42.818;0.404;2023-06-01T07:20:21;2.75;;;1.48;;
55813;SDS011;65494;42.818;0.404;2023-06-01T07:22:47;4.10;;;1.65;;
55813;SDS011;65494;42.818;0.404;2023-06-01T07:25:15;3.95;;;1.90;;
55813;SDS011;65494;42.818;0.404;2023-06-01T07:27:41;3.17;;;1.65;;
55813;SDS011;65494;42.818;0.404;2023-06-01T07:30:13;2.83;;;1.60;;
55813;SDS011;65494;42.818;0.404;2023-06-01T07:32:39;3.50;;;1.60;;
55813;SDS011;65494;42.818;0.404;2023-06-01T07:35:06;3.53;;;1.70;;
55813;SDS011;65494;42.818;0.404;2023-06-01T07:37:33;3.65;;;1.80;;
55813;SDS011;65494;42.818;0.404;2023-06-01T07:39:59;3.30;;;1.70;;
55813;SDS011;65494;42.818;0.404;2023-06-01T07:42:25;4.90;;;1.60;;
55813;SDS011;65494;42.818;0.404;2023-06-01T07:44:51;2.92;;;1.67;;
55813;SDS011;65494;42.818;0.404;2023-06-01T07:47:17;6.65;;;2.13;;
55813;SDS011;65494;42.818;0.404;2023-06-01T07:49:43;3.25;;;1.52;;
55813;SDS011;65494;42.818;0.404;2023-06-01T07:52:09;5.18;;;1.58;;
55813;SDS011;65494;42.818;0.404;2023-06-01T07:54:35;3.88;;;2.00;;
55813;SDS011;65494;42.818;0.404;2023-06-01T07:57:02;6.78;;;3.28;;
55813;SDS011;65494;42.818;0.404;2023-06-01T07:59:29;3.05;;;1.45;;
55813;SDS011;65494;42.818;0.404;2023-06-01T08:01:55;3.97;;;2.03;;
55813;SDS011;65494;42.818;0.404;2023-06-01T08:04:22;6.65;;;2.00;;
55813;SDS011;65494;42.818;0.404;2023-06-01T08:06:49;3.28;;;1.77;;
55813;SDS011;65494;42.818;0.404;2023-06-01T08:09:21;8.13;;;3.83;;
55813;SDS011;65494;42.818;0.404;2023-06-01T08:11:49;6.40;;;3.65;;
55813;SDS011;65494;42.818;0.404;2023-06-01T08:14:15;10.10;;;5.28;;
55813;SDS011;65494;42.818;0.404;2023-06-01T08:16:42;9.63;;;5.80;;
55813;SDS011;65494;42.818;0.404;2023-06-01T08:19:08;5.80;;;1.95;;
55813;SDS011;65494;42.818;0.404;2023-06-01T08:21:34;3.10;;;1.50;;
55813;SDS011;65494;42.818;0.404;2023-06-01T08:24:01;2.53;;;1.35;;
55813;SDS011;65494;42.818;0.404;2023-06-01T08:26:27;2.90;;;1.33;;
55813;SDS011;65494;42.818;0.404;2023-06-01T08:28:53;5.97;;;2.70;;
55813;SDS011;65494;42.818;0.404;2023-06-01T08:31:20;3.17;;;1.48;;
55813;SDS011;65494;42.818;0.404;2023-06-01T08:33:47;3.85;;;1.60;;
55813;SDS011;65494;42.818;0.404;2023-06-01T08:36:13;3.42;;;1.40;;
55813;SDS011;65494;42.818;0.404;2023-06-01T08:38:40;2.50;;;1.33;;
55813;SDS011;65494;42.818;0.404;2023-06-01T08:46:11;1.65;;;1.13;;
55813;SDS011;65494;42.818;0.404;2023-06-01T08:48:37;2.47;;;1.30;;
55813;SDS011;65494;42.818;0.404;2023-06-01T08:51:04;2.13;;;1.08;;
55813;SDS011;65494;42.818;0.404;2023-06-01T08:53:30;2.58;;;1.25;;
55813;SDS011;65494;42.818;0.404;2023-06-01T08:55:57;3.80;;;1.38;;
55813;SDS011;65494;42.818;0.404;2023-06-01T08:58:23;6.05;;;1.92;;
55813;SDS011;65494;42.818;0.404;2023-06-01T09:00:50;2.90;;;1.25;;
55813;SDS011;65494;42.818;0.404;2023-06-01T09:03:18;3.88;;;1.15;;
55813;SDS011;65494;42.818;0.404;2023-06-01T09:05:45;2.85;;;1.55;;
55813;SDS011;65494;42.818;0.404;2023-06-01T09:08:12;2.88;;;1.30;;
55813;SDS011;65494;42.818;0.404;2023-06-01T09:10:38;3.63;;;1.20;;
55813;SDS011;65494;42.818;0.404;2023-06-01T09:13:04;3.97;;;1.25;;
55813;SDS011;65494;42.818;0.404;2023-06-01T09:15:30;2.30;;;1.38;;
55813;SDS011;65494;42.818;0.404;2023-06-01T09:18:06;2.78;;;1.25;;
55813;SDS011;65494;42.818;0.404;2023-06-01T09:20:33;3.45;;;1.00;;
55813;SDS011;65494;42.818;0.404;2023-06-01T09:23:00;1.75;;;1.00;;
55813;SDS011;65494;42.818;0.404;2023-06-01T09:25:27;1.50;;;0.90;;
55813;SDS011;65494;42.818;0.404;2023-06-01T09:27:53;2.35;;;1.17;;
55813;SDS011;65494;42.818;0.404;2023-06-01T09:30:20;1.38;;;1.00;;
55813;SDS011;65494;42.818;0.404;2023-06-01T09:32:48;2.05;;;1.10;;
55813;SDS011;65494;42.818;0.404;2023-06-01T09:38:03;1.67;;;0.90;;
55813;SDS011;65494;42.818;0.404;2023-06-01T09:40:31;3.50;;;1.27;;
55813;SDS011;65494;42.818;0.404;2023-06-01T09:42:57;3.38;;;1.20;;
55813;SDS011;65494;42.818;0.404;2023-06-01T09:45:23;2.13;;;1.30;;
55813;SDS011;65494;42.818;0.404;2023-06-01T09:47:50;3.67;;;1.13;;
55813;SDS011;65494;42.818;0.404;2023-06-01T09:50:33;1.25;;;0.85;;
55813;SDS011;65494;42.818;0.404;2023-06-01T09:52:59;1.50;;;1.00;;
55813;SDS011;65494;42.818;0.404;2023-06-01T09:55:25;1.63;;;1.00;;
55813;SDS011;65494;42.818;0.404;2023-06-01T09:57:52;1.52;;;0.90;;
55813;SDS011;65494;42.818;0.404;2023-06-01T10:00:21;1.35;;;0.95;;
55813;SDS011;65494;42.818;0.404;2023-06-01T10:02:51;2.55;;;1.20;;
55813;SDS011;65494;42.818;0.404;2023-06-01T10:05:18;3.05;;;1.10;;
55813;SDS011;65494;42.818;0.404;2023-06-01T10:07:45;1.45;;;1.08;;
55813;SDS011;65494;42.818;0.404;2023-06-01T10:10:13;2.58;;;1.10;;
55813;SDS011;65494;42.818;0.404;2023-06-01T10:12:40;0.85;;;0.77;;
55813;SDS011;65494;42.818;0.404;2023-06-01T10:15:07;4.15;;;1.60;;
55813;SDS011;65494;42.818;0.404;2023-06-01T10:17:33;2.45;;;1.17;;
55813;SDS011;65494;42.818;0.404;2023-06-01T10:20:00;2.58;;;1.23;;
55813;SDS011;65494;42.818;0.404;2023-06-01T10:22:27;2.75;;;1.30;;
55813;SDS011;65494;42.818;0.404;2023-06-01T10:24:55;2.25;;;1.13;;
55813;SDS011;65494;42.818;0.404;2023-06-01T10:27:58;2.42;;;1.17;;
55813;SDS011;65494;42.818;0.404;2023-06-01T10:30:16;2.60;;;1.00;;
55813;SDS011;65494;42.818;0.404;2023-06-01T10:32:45;2.83;;;1.13;;
55813;SDS011;65494;42.818;0.404;2023-06-01T10:40:43;1.60;;;1.02;;
55813;SDS011;65494;42.818;0.404;2023-06-01T10:45:54;1.80;;;1.08;;
55813;SDS011;65494;42.818;0.404;2023-06-01T10:48:20;2.85;;;1.17;;
55813;SDS011;65494;42.818;0.404;2023-06-01T10:51:16;1.85;;;0.90;;
55813;SDS011;65494;42.818;0.404;2023-06-01T10:53:43;4.47;;;1.00;;
55813;SDS011;65494;42.818;0.404;2023-06-01T11:01:43;2.30;;;1.10;;
55813;SDS011;65494;42.818;0.404;2023-06-01T11:04:09;1.92;;;1.02;;
55813;SDS011;65494;42.818;0.404;2023-06-01T11:06:36;4.03;;;1.30;;
55813;SDS011;65494;42.818;0.404;2023-06-01T11:09:04;2.17;;;1.25;;
55813;SDS011;65494;42.818;0.404;2023-06-01T11:14:18;3.65;;;1.13;;
55813;SDS011;65494;42.818;0.404;2023-06-01T11:16:44;5.00;;;1.60;;
55813;SDS011;65494;42.818;0.404;2023-06-01T11:19:10;1.65;;;1.10;;
55813;SDS011;65494;42.818;0.404;2023-06-01T11:21:42;4.00;;;1.30;;
55813;SDS011;65494;42.818;0.404;2023-06-01T11:26:39;2.15;;;1.17;;
55813;SDS011;65494;42.818;0.404;2023-06-01T11:31:35;3.33;;;1.25;;
55813;SDS011;65494;42.818;0.404;2023-06-01T11:34:02;4.32;;;1.50;;
55813;SDS011;65494;42.818;0.404;2023-06-01T11:36:28;2.55;;;1.30;;
55813;SDS011;65494;42.818;0.404;2023-06-01T11:38:55;2.75;;;1.50;;
55813;SDS011;65494;42.818;0.404;2023-06-01T11:41:24;2.10;;;1.30;;
55813;SDS011;65494;42.818;0.404;2023-06-01T11:43:54;3.97;;;1.23;;
55813;SDS011;65494;42.818;0.404;2023-06-01T11:46:21;2.45;;;1.42;;
55813;SDS011;65494;42.818;0.404;2023-06-01T11:49:03;2.30;;;1.30;;
55813;SDS011;65494;42.818;0.404;2023-06-01T11:51:37;2.45;;;1.40;;
55813;SDS011;65494;42.818;0.404;2023-06-01T11:54:07;2.78;;;1.13;;
55813;SDS011;65494;42.818;0.404;2023-06-01T11:56:34;2.10;;;1.10;;
55813;SDS011;65494;42.818;0.404;2023-06-01T11:59:02;2.42;;;1.30;;
55813;SDS011;65494;42.818;0.404;2023-06-01T12:01:33;2.15;;;1.27;;
55813;SDS011;65494;42.818;0.404;2023-06-01T12:04:00;2.67;;;1.50;;
55813;SDS011;65494;42.818;0.404;2023-06-01T12:06:27;2.90;;;1.35;;
55813;SDS011;65494;42.818;0.404;2023-06-01T12:08:54;4.40;;;1.20;;
55813;SDS011;65494;42.818;0.404;2023-06-01T12:11:21;2.65;;;1.10;;
55813;SDS011;65494;42.818;0.404;2023-06-01T12:13:49;3.15;;;1.20;;
55813;SDS011;65494;42.818;0.404;2023-06-01T12:16:15;1.77;;;1.27;;
55813;SDS011;65494;42.818;0.404;2023-06-01T12:18:42;4.07;;;1.27;;
55813;SDS011;65494;42.818;0.404;2023-06-01T12:21:11;2.55;;;1.27;;
55813;SDS011;65494;42.818;0.404;2023-06-01T12:23:37;1.95;;;1.00;;
55813;SDS011;65494;42.818;0.404;2023-06-01T12:26:03;4.28;;;1.40;;
55813;SDS011;65494;42.818;0.404;2023-06-01T12:28:46;2.65;;;1.17;;
55813;SDS011;65494;42.818;0.404;2023-06-01T12:31:13;2.22;;;1.17;;
55813;SDS011;65494;42.818;0.404;2023-06-01T12:33:40;4.78;;;1.48;;
55813;SDS011;65494;42.818;0.404;2023-06-01T12:36:07;2.58;;;1.30;;
55813;SDS011;65494;42.818;0.404;2023-06-01T12:38:34;2.92;;;1.25;;
55813;SDS011;65494;42.818;0.404;2023-06-01T12:41:05;4.47;;;1.70;;
55813;SDS011;65494;42.818;0.404;2023-06-01T12:43:32;2.42;;;1.10;;
55813;SDS011;65494;42.818;0.404;2023-06-01T12:45:59;4.18;;;1.40;;
55813;SDS011;65494;42.818;0.404;2023-06-01T12:48:29;2.63;;;1.30;;
55813;SDS011;65494;42.818;0.404;2023-06-01T12:50:58;5.72;;;1.70;;
55813;SDS011;65494;42.818;0.404;2023-06-01T12:53:25;3.00;;;1.30;;
55813;SDS011;65494;42.818;0.404;2023-06-01T12:55:51;2.58;;;1.60;;
55813;SDS011;65494;42.818;0.404;2023-06-01T12:58:18;2.78;;;1.40;;
55813;SDS011;65494;42.818;0.404;2023-06-01T13:00:44;3.20;;;1.48;;
55813;SDS011;65494;42.818;0.404;2023-06-01T13:03:10;1.88;;;1.10;;
55813;SDS011;65494;42.818;0.404;2023-06-01T13:05:36;2.33;;;1.38;;
55813;SDS011;65494;42.818;0.404;2023-06-01T13:08:02;4.90;;;1.40;;
55813;SDS011;65494;42.818;0.404;2023-06-01T13:10:28;2.35;;;1.50;;
55813;SDS011;65494;42.818;0.404;2023-06-01T13:12:55;3.85;;;1.70;;
55813;SDS011;65494;42.818;0.404;2023-06-01T13:15:21;2.80;;;1.40;;
55813;SDS011;65494;42.818;0.404;2023-06-01T13:17:47;8.88;;;1.67;;
55813;SDS011;65494;42.818;0.404;2023-06-01T13:20:13;2.63;;;1.40;;
55813;SDS011;65494;42.818;0.404;2023-06-01T13:22:42;2.38;;;1.40;;
55813;SDS011;65494;42.818;0.404;2023-06-01T13:25:08;2.63;;;1.20;;
55813;SDS011;65494;42.818;0.404;2023-06-01T13:27:34;3.15;;;1.30;;
55813;SDS011;65494;42.818;0.404;2023-06-01T13:30:01;3.50;;;1.30;;
55813;SDS011;65494;42.818;0.404;2023-06-01T13:32:29;2.45;;;1.23;;
55813;SDS011;65494;42.818;0.404;2023-06-01T13:34:55;3.55;;;1.58;;
55813;SDS011;65494;42.818;0.404;2023-06-01T13:37:22;3.40;;;1.65;;
55813;SDS011;65494;42.818;0.404;2023-06-01T13:39:48;2.63;;;1.35;;
55813;SDS011;65494;42.818;0.404;2023-06-01T13:42:14;3.70;;;1.50;;
55813;SDS011;65494;42.818;0.404;2023-06-01T13:44:41;3.10;;;1.60;;
55813;SDS011;65494;42.818;0.404;2023-06-01T13:47:10;3.50;;;1.75;;
55813;SDS011;65494;42.818;0.404;2023-06-01T13:49:36;3.20;;;1.50;;
55813;SDS011;65494;42.818;0.404;2023-06-01T13:52:02;3.22;;;1.58;;
55813;SDS011;65494;42.818;0.404;2023-06-01T13:54:29;4.35;;;1.80;;
55813;SDS011;65494;42.818;0.404;2023-06-01T13:56:55;4.72;;;1.50;;
55813;SDS011;65494;42.818;0.404;2023-06-01T13:59:21;3.45;;;1.70;;
55813;SDS011;65494;42.818;0.404;2023-06-01T14:01:47;6.13;;;1.60;;
55813;SDS011;65494;42.818;0.404;2023-06-01T14:04:13;4.65;;;1.75;;
55813;SDS011;65494;42.818;0.404;2023-06-01T14:06:39;6.00;;;1.92;;
55813;SDS011;65494;42.818;0.404;2023-06-01T14:09:05;2.85;;;1.60;;
55813;SDS011;65494;42.818;0.404;2023-06-01T14:11:31;4.65;;;1.50;;
55813;SDS011;65494;42.818;0.404;2023-06-01T14:13:57;2.22;;;1.40;;
55813;SDS011;65494;42.818;0.404;2023-06-01T14:16:23;2.97;;;1.58;;
55813;SDS011;65494;42.818;0.404;2023-06-01T14:18:50;5.75;;;1.80;;
55813;SDS011;65494;42.818;0.404;2023-06-01T14:21:16;4.05;;;1.50;;
55813;SDS011;65494;42.818;0.404;2023-06-01T14:23:42;3.75;;;1.60;;
55813;SDS011;65494;42.818;0.404;2023-06-01T14:26:12;3.20;;;1.83;;
55813;SDS011;65494;42.818;0.404;2023-06-01T14:28:38;4.32;;;1.90;;
55813;SDS011;65494;42.818;0.404;2023-06-01T14:31:04;3.13;;;1.35;;
55813;SDS011;65494;42.818;0.404;2023-06-01T14:33:30;3.58;;;1.30;;
55813;SDS011;65494;42.818;0.404;2023-06-01T14:35:56;3.22;;;1.45;;
55813;SDS011;65494;42.818;0.404;2023-06-01T14:38:22;2.63;;;1.48;;
55813;SDS011;65494;42.818;0.404;2023-06-01T14:40:48;2.28;;;1.25;;
55813;SDS011;65494;42.818;0.404;2023-06-01T14:43:14;3.10;;;1.30;;
55813;SDS011;65494;42.818;0.404;2023-06-01T14:45:40;2.42;;;1.23;;
55813;SDS011;65494;42.818;0.404;2023-06-01T14:48:07;4.68;;;1.30;;
55813;SDS011;65494;42.818;0.404;2023-06-01T14:50:33;2.05;;;1.20;;
55813;SDS011;65494;42.818;0.404;2023-06-01T14:52:59;1.85;;;1.15;;
55813;SDS011;65494;42.818;0.404;2023-06-01T14:55:25;3.05;;;1.50;;
55813;SDS011;65494;42.818;0.404;2023-06-01T14:57:51;2.00;;;1.15;;
55813;SDS011;65494;42.818;0.404;2023-06-01T15:00:17;3.15;;;1.23;;
55813;SDS011;65494;42.818;0.404;2023-06-01T15:02:44;1.98;;;1.27;;
55813;SDS011;65494;42.818;0.404;2023-06-01T15:05:11;2.75;;;1.38;;
55813;SDS011;65494;42.818;0.404;2023-06-01T15:07:37;4.18;;;1.50;;
55813;SDS011;65494;42.818;0.404;2023-06-01T15:10:03;2.42;;;1.27;;
55813;SDS011;65494;42.818;0.404;2023-06-01T15:12:29;3.03;;;1.45;;
55813;SDS011;65494;42.818;0.404;2023-06-01T15:14:56;3.13;;;1.50;;
55813;SDS011;65494;42.818;0.404;2023-06-01T15:17:22;3.10;;;1.30;;
55813;SDS011;65494;42.818;0.404;2023-06-01T15:19:49;4.55;;;1.30;;
55813;SDS011;65494;42.818;0.404;2023-06-01T15:22:16;5.03;;;1.48;;
55813;SDS011;65494;42.818;0.404;2023-06-01T15:24:42;1.85;;;1.05;;
55813;SDS011;65494;42.818;0.404;2023-06-01T15:27:08;5.05;;;1.45;;
55813;SDS011;65494;42.818;0.404;2023-06-01T15:29:35;3.20;;;1.35;;
55813;SDS011;65494;42.818;0.404;2023-06-01T15:32:01;2.75;;;1.30;;
55813;SDS011;65494;42.818;0.404;2023-06-01T15:34:27;5.82;;;1.40;;